Time;durP1;ratioP1;P1;durP2;ratioP2;P2;SDS_P1;SDS_P2;PMS_P1;PMS_P2;Temp;Humidity;BMP_temperature;BMP_pressure;BME280_temperature;BME280_humidity;BME280_pressure;Samples;Min_cycle;Max_cycle;Signal;HPM_P1;HPM_P2
2023/02/20 00:02:01;;;;;;;6.63;3.00;;;;;;;3.36;83.50;101395.81;4969996;28;20042;-85
2023/02/20 00:04:29;;;;;;;7.20;3.00;;;;;;;3.39;83.31;101404.44;4963895;28;20105;-85
2023/02/20 00:06:56;;;;;;;8.35;3.42;;;;;;;3.40;83.23;101411.34;4966623;28;20113;-87
2023/02/20 00:09:23;;;;;;;10.40;4.10;;;;;;;3.36;84.29;101401.88;4964405;28;20048;-85
2023/02/20 00:11:51;;;;;;;11.00;3.83;;;;;;;3.38;84.49;101394.91;4966071;28;20077;-84
2023/02/20 00:14:18;;;;;;;5.93;3.33;;;;;;;3.33;84.89;101396.72;4978815;28;20042;-85
2023/02/20 00:16:46;;;;;;;8.60;3.95;;;;;;;3.36;84.81;101388.84;5007377;28;20031;-86
2023/02/20 00:19:15;;;;;;;7.05;3.63;;;;;;;3.40;84.29;101385.31;4985110;28;20050;-86
2023/02/20 00:21:47;;;;;;;8.27;3.47;;;;;;;3.33;85.27;101390.66;4957870;28;20064;-85
2023/02/20 00:24:16;;;;;;;9.43;3.53;;;;;;;3.32;84.38;101397.59;4953410;28;20666;-85
2023/02/20 00:26:50;;;;;;;6.85;3.90;;;;;;;3.27;85.51;101387.25;4982208;28;20071;-87
2023/02/20 00:29:44;;;;;;;7.07;4.15;;;;;;;3.23;86.11;101374.34;4958436;28;20050;-83
2023/02/20 00:32:12;;;;;;;7.60;3.63;;;;;;;3.20;86.03;101375.25;4957766;28;20042;-81
2023/02/20 00:34:40;;;;;;;7.70;4.68;;;;;;;3.21;85.94;101363.09;4965363;28;20038;-84
2023/02/20 00:37:09;;;;;;;9.07;4.70;;;;;;;3.24;85.99;101365.63;4961687;28;20042;-81
2023/02/20 00:39:37;;;;;;;11.07;3.95;;;;;;;3.20;86.08;101369.19;4990887;28;20077;-83
2023/02/20 00:42:05;;;;;;;7.10;4.30;;;;;;;3.21;85.50;101360.50;4990963;28;20101;-82
2023/02/20 00:44:32;;;;;;;8.32;4.78;;;;;;;3.19;86.14;101360.50;4980529;28;20026;-83
2023/02/20 00:47:00;;;;;;;11.48;4.65;;;;;;;3.25;85.94;101360.44;4982007;28;20073;-84
2023/02/20 00:49:28;;;;;;;10.50;5.15;;;;;;;3.21;86.69;101352.69;4990774;28;20057;-83
2023/02/20 00:51:55;;;;;;;10.73;4.82;;;;;;;3.18;86.41;101350.13;4979225;28;20018;-81
2023/02/20 00:54:23;;;;;;;7.78;5.50;;;;;;;3.13;87.09;101351.97;5002754;28;20049;-83
2023/02/20 00:56:50;;;;;;;11.25;4.57;;;;;;;3.11;87.40;101349.41;5020023;28;20120;-83
2023/02/20 00:59:18;;;;;;;8.50;4.95;;;;;;;3.16;87.18;101354.53;4983074;28;20042;-84
2023/02/20 01:01:45;;;;;;;8.70;4.75;;;;;;;3.16;87.11;101331.97;4966750;28;20095;-85
2023/02/20 01:04:12;;;;;;;12.73;4.55;;;;;;;3.21;86.77;101337.09;4969858;28;20061;-83
2023/02/20 01:06:42;;;;;;;12.00;4.97;;;;;;;3.18;87.54;101330.19;4987431;28;20030;-86
2023/02/20 01:09:10;;;;;;;10.52;5.07;;;;;;;3.11;87.14;101341.59;4971347;28;20042;-83
2023/02/20 01:11:40;;;;;;;8.80;4.75;;;;;;;3.10;86.95;101342.44;4987248;28;20046;-84
2023/02/20 01:14:08;;;;;;;10.75;5.05;;;;;;;3.03;87.97;101339.09;4986601;28;20035;-84
2023/02/20 01:16:35;;;;;;;7.93;5.28;;;;;;;2.99;87.84;101324.44;4970928;28;20125;-83
2023/02/20 01:19:03;;;;;;;13.52;4.50;;;;;;;2.99;88.11;101323.56;4971482;28;20114;-83
2023/02/20 01:21:34;;;;;;;11.77;5.50;;;;;;;2.98;88.00;101324.47;4953899;28;20143;-85
2023/02/20 01:24:02;;;;;;;8.70;4.80;;;;;;;2.95;88.94;101327.97;4950284;28;20038;-86
2023/02/20 01:26:30;;;;;;;10.13;4.85;;;;;;;2.98;88.74;101316.66;5003654;28;20042;-86
2023/02/20 01:28:57;;;;;;;8.05;4.82;;;;;;;3.00;88.15;101318.34;4996954;28;20038;-82
2023/02/20 01:31:25;;;;;;;11.73;5.70;;;;;;;3.05;88.20;101307.84;4978877;28;20072;-85
2023/02/20 01:33:52;;;;;;;9.25;4.72;;;;;;;3.03;88.68;101300.09;4975367;28;20042;-85
2023/02/20 01:36:20;;;;;;;12.77;5.63;;;;;;;3.08;87.92;101296.56;4995681;28;20046;-84
2023/02/20 01:38:47;;;;;;;9.45;5.00;;;;;;;3.01;88.06;101288.84;4993884;28;20516;-85
2023/02/20 01:41:15;;;;;;;10.10;5.50;;;;;;;2.97;88.82;101286.31;4991905;28;20062;-84
2023/02/20 01:43:42;;;;;;;11.43;5.63;;;;;;;2.99;88.90;101288.03;4998983;28;20061;-86
2023/02/20 01:46:28;;;;;;;11.18;5.35;;;;;;;2.99;88.62;101295.81;4974189;28;20181;-82
2023/02/20 01:49:01;;;;;;;9.82;5.20;;;;;;;2.99;89.51;101282.81;5009981;28;20022;-83
2023/02/20 01:51:31;;;;;;;12.30;5.32;;;;;;;2.94;89.50;101263.84;4986906;28;20042;-82
2023/02/20 01:53:58;;;;;;;10.57;5.60;;;;;;;2.94;89.53;101266.44;5003873;28;20034;-84
2023/02/20 01:56:26;;;;;;;10.73;5.25;;;;;;;2.95;89.43;101256.88;4990042;28;20081;-85
2023/02/20 01:59:15;;;;;;;7.93;4.53;;;;;;;3.02;89.26;101238.56;4980111;28;20042;-84
2023/02/20 02:01:42;;;;;;;9.07;4.78;;;;;;;3.11;88.37;101228.84;4973238;28;20074;-84
2023/02/20 02:04:14;;;;;;;10.82;5.38;;;;;;;3.09;88.40;101226.28;4980791;28;20054;-86
2023/02/20 02:06:53;;;;;;;7.43;4.38;;;;;;;3.11;88.67;101226.25;4997975;28;20018;-85
2023/02/20 02:09:48;;;;;;;8.80;4.93;;;;;;;3.10;89.57;101225.38;4989452;28;20043;-86
2023/02/20 02:12:15;;;;;;;11.68;4.95;;;;;;;3.03;89.77;101221.19;4989582;28;20046;-85
2023/02/20 02:14:43;;;;;;;8.32;5.50;;;;;;;3.10;88.79;101222.78;4969692;28;20072;-85
2023/02/20 02:17:38;;;;;;;7.85;4.95;;;;;;;3.06;89.61;101215.91;4952830;28;20046;-85
2023/02/20 02:20:40;;;;;;;8.82;5.07;;;;;;;3.01;89.65;101217.75;5002181;28;20088;-85
2023/02/20 02:23:08;;;;;;;10.93;5.07;;;;;;;2.95;90.34;101216.13;4928676;29;20505;-85
2023/02/20 02:25:50;;;;;;;8.23;5.07;;;;;;;2.96;91.14;101219.59;4957717;28;20120;-83
2023/02/20 02:28:37;;;;;;;10.60;4.70;;;;;;;2.99;90.14;101217.78;4996813;28;20049;-83
2023/02/20 02:31:16;;;;;;;6.97;4.30;;;;;;;3.02;90.01;101224.69;4980844;28;20070;-84
2023/02/20 02:33:47;;;;;;;12.07;5.38;;;;;;;3.08;90.38;101213.31;4967207;28;20054;-85
2023/02/20 02:36:26;;;;;;;11.02;4.88;;;;;;;3.06;90.34;101202.91;4981073;28;20035;-86
2023/02/20 02:38:59;;;;;;;9.13;5.35;;;;;;;3.08;90.68;101201.16;4978479;28;20047;-86
2023/02/20 02:41:41;;;;;;;9.38;5.00;;;;;;;3.13;90.83;101201.06;5000710;28;20590;-83
2023/02/20 02:44:21;;;;;;;10.43;5.32;;;;;;;3.19;90.60;101183.59;4997050;28;20042;-85
2023/02/20 02:46:56;;;;;;;8.68;5.65;;;;;;;3.25;91.20;101185.22;4995789;28;20054;-88
2023/02/20 02:49:39;;;;;;;15.95;6.47;;;;;;;3.28;90.91;101182.56;4957523;28;20054;-82
2023/02/20 02:52:07;;;;;;;9.13;5.85;;;;;;;3.30;92.32;101175.59;4979832;28;20065;-84
2023/02/20 02:54:37;;;;;;;10.95;5.65;;;;;;;3.36;92.26;101175.44;4999247;28;20054;-84
2023/02/20 02:57:30;;;;;;;6.68;5.10;;;;;;;3.46;92.91;101181.31;4964740;28;20066;-85
2023/02/20 03:00:09;;;;;;;7.40;5.43;;;;;;;3.51;93.63;101180.34;4964759;28;20054;-85
2023/02/20 03:02:52;;;;;;;10.23;6.13;;;;;;;3.57;93.36;101175.91;4979527;28;20633;-84
2023/02/20 03:05:22;;;;;;;9.38;6.20;;;;;;;3.65;92.87;101179.19;4968946;28;20097;-82
2023/02/20 03:07:52;;;;;;;10.38;7.13;;;;;;;3.67;93.43;101156.59;4988421;28;20047;-85
2023/02/20 03:10:30;;;;;;;11.68;6.63;;;;;;;3.73;93.16;101153.84;4998436;28;20747;-84
2023/02/20 03:13:02;;;;;;;9.27;6.53;;;;;;;3.78;93.21;101145.06;4972954;28;20079;-83
2023/02/20 03:15:36;;;;;;;12.15;6.55;;;;;;;3.86;93.22;101147.47;5003393;28;20053;-85
2023/02/20 03:18:16;;;;;;;9.60;6.20;;;;;;;3.89;92.46;101136.13;4980870;28;20366;-82
2023/02/20 03:20:50;;;;;;;9.43;6.40;;;;;;;3.90;93.47;101135.22;4997786;28;20050;-85
2023/02/20 03:23:26;;;;;;;11.77;6.85;;;;;;;3.90;93.36;101132.63;4970531;28;20039;-83
2023/02/20 03:25:56;;;;;;;11.77;7.10;;;;;;;3.90;93.26;101133.47;4973866;28;20046;-84
2023/02/20 03:28:29;;;;;;;10.25;6.90;;;;;;;3.95;93.66;101146.41;4978447;28;20062;-84
2023/02/20 03:30:58;;;;;;;10.70;7.15;;;;;;;4.00;93.67;101119.34;4972904;28;20038;-84
2023/02/20 03:45:06;;;;;;;13.65;7.47;;;;;;;4.12;93.79;101091.28;4972441;28;20089;-85
2023/02/20 03:47:36;;;;;;;11.30;7.45;;;;;;;4.17;93.16;101095.50;4981999;28;20042;-84
2023/02/20 03:50:06;;;;;;;12.52;7.57;;;;;;;4.22;93.62;101100.59;4996298;28;20108;-84
2023/02/20 03:52:33;;;;;;;10.85;7.32;;;;;;;4.23;93.99;101097.97;4982770;28;20128;-83
2023/02/20 03:55:01;;;;;;;12.93;8.05;;;;;;;4.31;94.15;101096.00;5013914;28;20070;-87
2023/02/20 03:57:41;;;;;;;11.57;7.43;;;;;;;4.34;93.46;101113.31;4954693;28;20066;-87
2023/02/20 04:00:16;;;;;;;12.82;8.50;;;;;;;4.40;92.91;101112.28;4974002;28;20049;-86
2023/02/20 04:02:45;;;;;;;12.05;7.55;;;;;;;4.38;93.50;101117.56;4985322;28;20046;-86
2023/02/20 04:05:17;;;;;;;10.50;7.82;;;;;;;4.39;93.45;101103.63;4972508;28;20556;-85
2023/02/20 04:07:49;;;;;;;9.88;7.30;;;;;;;4.38;93.49;101104.53;4963291;28;20042;-84
2023/02/20 04:10:25;;;;;;;12.80;8.57;;;;;;;4.51;93.70;101110.28;4981614;28;20046;-85
2023/02/20 04:12:57;;;;;;;10.60;6.93;;;;;;;4.45;94.28;101095.63;4950771;28;20124;-85
2023/02/20 04:15:26;;;;;;;12.52;7.28;;;;;;;4.49;94.05;101088.59;4970002;28;20049;-86
2023/02/20 04:17:58;;;;;;;13.18;8.85;;;;;;;4.50;94.03;101090.31;4947484;28;20042;-86
2023/02/20 04:20:25;;;;;;;12.43;7.43;;;;;;;4.50;94.03;101103.34;4982836;28;20153;-86
2023/02/20 04:22:56;;;;;;;10.75;7.13;;;;;;;4.54;94.04;101079.75;4968070;28;20046;-83
2023/02/20 04:25:34;;;;;;;11.02;7.85;;;;;;;4.56;94.15;101077.97;4962949;28;20050;-85
2023/02/20 04:28:02;;;;;;;10.77;7.68;;;;;;;4.57;94.52;101071.00;4950546;28;20049;-85
2023/02/20 04:30:29;;;;;;;10.02;7.78;;;;;;;4.54;94.89;101078.91;4966853;28;20045;-86
2023/02/20 04:32:57;;;;;;;11.07;7.88;;;;;;;4.52;95.03;101076.34;4957940;28;20502;-84
2023/02/20 04:35:25;;;;;;;11.15;7.45;;;;;;;4.56;94.98;101059.72;4966350;28;20182;-84
2023/02/20 04:37:52;;;;;;;10.98;7.43;;;;;;;4.60;94.86;101057.03;4979397;28;20039;-85
2023/02/20 04:40:22;;;;;;;11.68;8.27;;;;;;;4.56;95.53;101070.16;4980838;28;20049;-85
2023/02/20 04:42:49;;;;;;;11.93;7.60;;;;;;;4.53;95.95;101069.38;4996637;28;20081;-86
2023/02/20 04:45:19;;;;;;;13.05;8.18;;;;;;;4.55;96.25;101058.00;4982049;28;20132;-85
2023/02/20 04:47:51;;;;;;;11.38;8.02;;;;;;;4.56;95.96;101038.00;5014904;28;20046;-83
2023/02/20 04:50:26;;;;;;;;;;;;;;;4.60;95.96;101036.19;4971728;28;20436;-84
2023/02/20 04:52:54;;;;;;;9.75;7.35;;;;;;;4.64;96.30;101033.44;4973701;28;19926;-84
2023/02/20 04:55:21;;;;;;;10.50;7.35;;;;;;;4.62;96.69;101036.97;4954136;28;21339;-85
2023/02/20 04:57:49;;;;;;;11.18;8.40;;;;;;;4.65;96.32;101036.91;4966158;28;20046;-86
2023/02/20 05:00:17;;;;;;;11.15;8.50;;;;;;;4.79;95.45;101024.31;4990723;28;20046;-83
2023/02/20 05:02:44;;;;;;;10.00;7.95;;;;;;;4.73;95.61;101014.06;4962105;28;20058;-85
2023/02/20 05:05:26;;;;;;;11.23;7.43;;;;;;;4.72;95.85;101007.13;4971167;28;20893;-86
2023/02/20 05:07:59;;;;;;;12.02;8.43;;;;;;;4.71;96.56;101013.25;4979300;28;20053;-84
2023/02/20 05:10:28;;;;;;;9.43;7.28;;;;;;;4.68;96.43;100993.31;4962562;28;20038;-82
2023/02/20 05:12:56;;;;;;;9.25;7.53;;;;;;;4.69;96.91;100999.41;4965608;28;20042;-85
2023/02/20 05:15:25;;;;;;;13.85;7.30;;;;;;;4.69;96.98;100974.19;4982949;28;20043;-85
2023/02/20 05:17:52;;;;;;;13.15;8.00;;;;;;;4.73;96.73;100985.38;4988134;28;20050;-82
2023/02/20 05:20:20;;;;;;;9.77;6.97;;;;;;;4.74;97.16;100974.91;5006332;28;20035;-81
2023/02/20 05:22:47;;;;;;;12.82;8.43;;;;;;;4.78;97.46;100978.28;5006694;28;20043;-85
2023/02/20 05:25:22;;;;;;;12.07;8.05;;;;;;;4.82;96.86;100985.13;4966808;28;20160;-84
2023/02/20 05:27:49;;;;;;;12.82;7.55;;;;;;;4.85;97.12;100981.53;4978202;28;20061;-83
2023/02/20 05:30:19;;;;;;;10.80;8.13;;;;;;;4.86;97.23;100993.69;4972114;28;20043;-85
2023/02/20 05:32:47;;;;;;;10.32;8.00;;;;;;;4.87;97.17;100985.84;4981146;28;20031;-82
2023/02/20 05:35:38;;;;;;;8.95;7.30;;;;;;;4.90;97.38;100977.91;4981608;28;20034;-82
2023/02/20 05:38:09;;;;;;;12.73;8.25;;;;;;;4.93;97.30;100979.56;4999198;28;20050;-88
2023/02/20 05:40:37;;;;;;;12.15;9.18;;;;;;;4.88;97.41;100974.50;4959125;28;20141;-88
2023/02/20 05:43:05;;;;;;;10.98;8.85;;;;;;;4.87;98.59;100971.94;4984142;28;20635;-87
2023/02/20 05:45:33;;;;;;;10.55;8.50;;;;;;;4.84;99.34;100983.31;4966008;28;20053;-87
2023/02/20 05:48:00;;;;;;;9.88;8.30;;;;;;;4.88;99.36;100979.72;4983335;28;20105;-88
2023/02/20 05:50:39;;;;;;;10.20;8.52;;;;;;;4.93;99.14;100969.13;4969487;28;20049;-88
2023/02/20 05:53:07;;;;;;;10.32;8.13;;;;;;;4.91;98.75;100965.69;4973374;28;20047;-87
2023/02/20 05:55:35;;;;;;;9.93;8.38;;;;;;;4.93;99.73;100962.16;4969166;28;20053;-84
2023/02/20 05:58:02;;;;;;;15.65;8.88;;;;;;;4.93;99.54;100956.09;4982242;28;20041;-85
2023/02/20 06:00:41;;;;;;;;;;;;;;;;;;;;;
2023/02/20 06:03:42;;;;;;;10.65;7.82;;;;;;;4.95;100.00;100939.47;4997970;28;20035;-88
2023/02/20 06:06:09;;;;;;;9.20;7.90;;;;;;;4.97;100.00;100934.22;4989221;28;20054;-64
2023/02/20 06:08:38;;;;;;;10.70;8.07;;;;;;;4.98;99.86;100928.94;5000010;28;20128;-64
2023/02/20 06:11:06;;;;;;;9.93;8.05;;;;;;;4.98;100.00;100922.88;5003331;28;20060;-64
2023/02/20 06:13:33;;;;;;;10.18;7.78;;;;;;;5.00;100.00;100915.88;4995312;28;20147;-64
2023/02/20 06:16:00;;;;;;;10.38;7.93;;;;;;;4.99;100.00;100922.81;4999846;28;20050;-64
2023/02/20 06:18:27;;;;;;;10.77;8.57;;;;;;;4.99;100.00;100920.22;5004561;28;20053;-65
2023/02/20 06:20:55;;;;;;;10.55;8.35;;;;;;;4.99;100.00;100908.94;4997559;28;20053;-65
2023/02/20 06:23:23;;;;;;;11.52;8.07;;;;;;;5.03;99.11;100898.34;4995469;28;20471;-65
2023/02/20 06:25:50;;;;;;;10.23;7.88;;;;;;;5.00;99.61;100892.41;4994056;28;20188;-63
2023/02/20 06:28:17;;;;;;;11.95;8.13;;;;;;;5.01;100.00;100907.16;4993286;28;20137;-63
2023/02/20 06:30:44;;;;;;;12.35;8.55;;;;;;;5.04;100.00;100909.63;4990628;28;20149;-63
2023/02/20 06:33:12;;;;;;;11.10;8.77;;;;;;;5.11;99.17;100899.88;5004184;28;20154;-63
2023/02/20 06:35:39;;;;;;;11.25;9.23;;;;;;;5.10;99.47;100891.19;4999430;28;20081;-63
2023/02/20 06:38:06;;;;;;;11.13;9.63;;;;;;;5.15;99.41;100888.44;4998219;28;20148;-63
2023/02/20 06:40:33;;;;;;;14.02;8.98;;;;;;;5.16;99.37;100884.91;4998648;28;20740;-63
2023/02/20 06:43:00;;;;;;;12.50;9.80;;;;;;;5.17;99.25;100881.41;5000163;28;20133;-63
2023/02/20 06:45:28;;;;;;;13.50;9.55;;;;;;;5.15;99.79;100910.16;4989222;28;20056;-63
2023/02/20 06:47:55;;;;;;;11.95;9.90;;;;;;;5.19;99.66;100898.72;4996189;28;20170;-63
2023/02/20 06:50:22;;;;;;;13.93;10.43;;;;;;;5.21;100.00;100894.28;4995479;28;20122;-63
2023/02/20 06:52:49;;;;;;;12.50;10.55;;;;;;;5.26;100.00;100881.09;4996117;28;20665;-63
2023/02/20 06:55:16;;;;;;;13.65;10.45;;;;;;;5.25;100.00;100855.91;4996130;28;20651;-63
2023/02/20 06:57:44;;;;;;;13.75;11.18;;;;;;;5.26;100.00;100881.09;4998291;28;20081;-64
2023/02/20 07:00:12;;;;;;;14.82;11.32;;;;;;;5.26;100.00;100875.88;5004511;28;20479;-64
2023/02/20 07:02:39;;;;;;;16.33;11.75;;;;;;;5.29;99.57;100876.63;4998809;28;20104;-63
2023/02/20 07:05:08;;;;;;;21.38;11.52;;;;;;;5.26;100.00;100889.78;5014709;28;20420;-63
2023/02/20 07:07:35;;;;;;;13.98;11.23;;;;;;;5.34;99.01;100874.72;5035522;28;20045;-63
2023/02/20 07:10:04;;;;;;;15.38;12.30;;;;;;;5.34;99.25;100874.72;5030966;28;20048;-63
2023/02/20 07:12:32;;;;;;;14.25;11.93;;;;;;;5.37;98.17;100883.38;5037496;28;20059;-63
2023/02/20 07:14:59;;;;;;;14.52;11.88;;;;;;;5.48;97.74;100842.91;5034713;28;20395;-64
2023/02/20 07:17:27;;;;;;;15.23;12.65;;;;;;;5.48;97.09;100836.84;5031193;28;20056;-64
2023/02/20 07:19:55;;;;;;;17.77;12.75;;;;;;;5.49;96.60;100852.47;5041291;28;20061;-63
2023/02/20 07:22:22;;;;;;;15.98;12.60;;;;;;;5.53;96.53;100858.44;5043562;28;20130;-63
2023/02/20 07:24:51;;;;;;;15.90;12.32;;;;;;;5.54;96.39;100854.94;5042936;28;20099;-64
2023/02/20 07:27:18;;;;;;;16.02;12.73;;;;;;;5.56;95.97;100838.28;5034873;28;20053;-64
2023/02/20 07:29:47;;;;;;;15.70;12.10;;;;;;;5.59;95.28;100838.19;5036066;28;20088;-64
2023/02/20 07:32:19;;;;;;;16.00;12.55;;;;;;;5.58;94.71;100856.50;5024556;28;20514;-64
2023/02/20 07:34:46;;;;;;;13.80;12.10;;;;;;;5.65;94.36;100862.38;5023067;28;20103;-64
2023/02/20 07:37:29;;;;;;;14.43;11.45;;;;;;;5.73;93.62;100865.59;5031161;28;20085;-65
2023/02/20 07:39:56;;;;;;;15.48;11.07;;;;;;;5.83;92.77;100851.28;5039922;28;20103;-64
2023/02/20 07:42:23;;;;;;;15.20;11.32;;;;;;;5.82;92.55;100833.91;5039189;28;20136;-64
2023/02/20 07:44:51;;;;;;;12.98;10.75;;;;;;;5.77;92.14;100834.09;5012403;28;20143;-64
2023/02/20 07:47:18;;;;;;;14.52;11.48;;;;;;;5.81;91.86;100832.22;5037163;28;20080;-63
2023/02/20 07:49:45;;;;;;;13.88;10.73;;;;;;;5.84;91.70;100839.94;5042080;28;20573;-64
2023/02/20 07:52:12;;;;;;;13.70;10.65;;;;;;;5.87;90.83;100834.59;5045964;28;20080;-64
2023/02/20 07:54:39;;;;;;;14.85;10.98;;;;;;;5.95;90.80;100823.91;5015639;28;20069;-63
2023/02/20 07:57:07;;;;;;;12.55;9.55;;;;;;;5.94;89.68;100791.69;5033222;28;20073;-63
2023/02/20 07:59:34;;;;;;;14.23;10.77;;;;;;;5.97;89.83;100825.53;5035518;28;20053;-63
2023/02/20 08:02:01;;;;;;;15.27;10.98;;;;;;;5.98;89.95;100823.78;5037713;28;20056;-63
2023/02/20 08:04:29;;;;;;;12.18;10.20;;;;;;;6.00;89.29;100822.81;5033825;28;20615;-63
2023/02/20 08:06:56;;;;;;;10.15;8.98;;;;;;;6.05;88.53;100820.91;5038520;28;20049;-64
2023/02/20 08:09:23;;;;;;;14.13;9.82;;;;;;;6.09;88.36;100801.56;5036957;28;20132;-64
2023/02/20 08:11:50;;;;;;;13.85;9.70;;;;;;;6.16;88.47;100785.66;5036799;28;20131;-64
2023/02/20 08:14:18;;;;;;;13.45;9.73;;;;;;;6.18;87.53;100794.31;5036941;28;20081;-64
2023/02/20 08:16:45;;;;;;;10.43;8.48;;;;;;;6.25;87.24;100772.22;5031063;28;20135;-64
2023/02/20 08:19:12;;;;;;;17.33;9.48;;;;;;;6.22;86.91;100759.28;5038829;28;20189;-63
2023/02/20 08:21:40;;;;;;;12.52;8.95;;;;;;;6.27;87.02;100771.28;5038944;28;20132;-64
2023/02/20 08:24:07;;;;;;;11.27;8.27;;;;;;;6.31;86.47;100766.78;5034048;28;20140;-64
2023/02/20 08:26:34;;;;;;;10.90;9.05;;;;;;;6.35;86.29;100760.53;5033023;28;20077;-65
2023/02/20 08:29:01;;;;;;;13.30;9.07;;;;;;;6.40;86.15;100762.97;5033145;28;20083;-65
2023/02/20 08:31:29;;;;;;;13.07;8.93;;;;;;;6.44;86.09;100754.06;5036450;28;20049;-65
2023/02/20 08:33:59;;;;;;;8.73;7.32;;;;;;;6.39;86.57;100771.69;5031955;28;20053;-64
2023/02/20 08:36:26;;;;;;;12.50;8.38;;;;;;;6.41;86.20;100734.13;5040970;28;20099;-65
2023/02/20 08:38:54;;;;;;;15.02;7.93;;;;;;;6.41;85.89;100743.72;5022203;28;20133;-65
2023/02/20 08:41:21;;;;;;;12.32;8.20;;;;;;;6.49;85.40;100724.22;5039095;28;20131;-64
2023/02/20 08:43:48;;;;;;;9.32;7.20;;;;;;;6.56;84.97;100757.03;5031177;28;20041;-64
2023/02/20 08:46:15;;;;;;;10.02;7.55;;;;;;;6.60;84.78;100710.69;5036419;28;20133;-64
2023/02/20 08:48:43;;;;;;;13.63;8.32;;;;;;;6.58;84.87;100741.31;5037371;28;20145;-64
2023/02/20 08:51:11;;;;;;;9.70;7.00;;;;;;;6.58;84.49;100707.28;5031089;28;20469;-63
2023/02/20 08:53:38;;;;;;;11.02;8.23;;;;;;;6.66;84.30;100722.66;5019548;28;20136;-64
2023/02/20 08:56:06;;;;;;;10.20;7.05;;;;;;;6.71;84.33;100698.03;5036122;28;20151;-64
2023/02/20 08:58:33;;;;;;;10.98;7.88;;;;;;;6.73;84.80;100687.47;5038352;28;20060;-64
2023/02/20 09:01:00;;;;;;;11.00;6.82;;;;;;;6.73;83.94;100683.09;5034850;28;20063;-64
2023/02/20 09:03:28;;;;;;;8.60;6.43;;;;;;;6.74;84.57;100674.34;5035598;28;20057;-63
2023/02/20 09:05:55;;;;;;;11.63;7.00;;;;;;;6.82;83.49;100674.88;5030660;28;20053;-64
2023/02/20 09:08:22;;;;;;;9.55;6.40;;;;;;;6.83;83.64;100680.94;5032360;28;20052;-64
2023/02/20 09:10:50;;;;;;;9.55;6.78;;;;;;;6.87;83.67;100647.66;5032286;28;20059;-63
2023/02/20 09:13:17;;;;;;;8.52;6.18;;;;;;;6.91;83.80;100641.38;5029250;28;20133;-63
2023/02/20 09:15:44;;;;;;;8.00;6.10;;;;;;;6.98;82.85;100651.50;5037890;28;20525;-64
2023/02/20 09:18:13;;;;;;;10.98;7.18;;;;;;;6.98;82.67;100634.94;5031259;28;20056;-63
2023/02/20 09:20:40;;;;;;;12.30;7.25;;;;;;;6.98;82.77;100625.34;5031338;28;20077;-64
2023/02/20 09:23:08;;;;;;;8.25;6.15;;;;;;;7.09;82.14;100644.03;5033272;28;20513;-64
2023/02/20 09:25:35;;;;;;;9.57;6.38;;;;;;;7.08;81.43;100608.31;5039952;28;20152;-63
2023/02/20 09:28:02;;;;;;;9.35;6.05;;;;;;;7.14;81.34;100635.97;5040586;28;20136;-64
2023/02/20 09:30:30;;;;;;;7.30;5.78;;;;;;;7.19;81.32;100599.94;5038626;28;20080;-64
2023/02/20 09:32:57;;;;;;;8.63;5.70;;;;;;;7.22;81.60;100598.97;5043669;28;20682;-64
2023/02/20 09:35:29;;;;;;;8.35;5.68;;;;;;;7.30;80.53;100599.47;5034794;28;20058;-64
2023/02/20 09:37:57;;;;;;;8.32;6.10;;;;;;;7.28;80.80;100585.59;5039095;28;20147;-64
2023/02/20 09:40:26;;;;;;;7.07;5.35;;;;;;;7.33;80.11;100620.28;5033314;28;20148;-64
2023/02/20 09:43:12;;;;;;;10.45;5.68;;;;;;;7.32;80.21;100579.31;5038588;28;20128;-64
2023/02/20 09:45:50;;;;;;;12.00;5.53;;;;;;;7.40;79.89;100585.03;5038102;28;20053;-65
2023/02/20 09:48:55;;;;;;;7.75;5.05;;;;;;;7.45;79.47;100584.81;5019595;28;20061;-64
2023/02/20 09:51:25;;;;;;;6.75;5.05;;;;;;;7.52;80.59;100580.97;5011568;28;20053;-65
2023/02/20 09:54:28;;;;;;;7.85;5.18;;;;;;;7.64;79.06;100577.78;5036490;28;20143;-65
2023/02/20 09:56:58;;;;;;;8.35;4.53;;;;;;;7.66;79.49;100567.25;5026860;28;20144;-65
2023/02/20 09:59:32;;;;;;;9.05;4.97;;;;;;;7.67;77.82;100561.09;5028046;28;20061;-65
2023/02/20 10:02:22;;;;;;;11.07;5.53;;;;;;;7.74;78.93;100567.72;5026639;28;20136;-64
2023/02/20 10:04:51;;;;;;;12.13;5.38;;;;;;;7.72;78.15;100580.91;5018387;28;20071;-64
2023/02/20 10:07:30;;;;;;;10.45;5.68;;;;;;;7.80;77.59;100581.38;5016990;28;20417;-65
2023/02/20 10:09:59;;;;;;;8.45;5.28;;;;;;;7.85;77.62;100586.41;5046169;28;20061;-65
2023/02/20 10:12:38;;;;;;;9.40;5.72;;;;;;;7.89;77.02;100577.47;5025947;28;20454;-65
2023/02/20 10:15:17;;;;;;;9.93;5.45;;;;;;;7.87;77.48;100577.53;5018317;28;20085;-65
2023/02/20 10:17:44;;;;;;;8.32;5.40;;;;;;;7.93;77.02;100584.28;5028451;28;20080;-64
2023/02/20 10:20:21;;;;;;;7.05;4.93;;;;;;;7.95;76.84;100550.09;5025938;28;20061;-65
2023/02/20 10:22:53;;;;;;;13.25;5.53;;;;;;;7.92;77.12;100540.59;5035761;28;20113;-65
2023/02/20 10:25:23;;;;;;;6.97;5.30;;;;;;;7.98;77.51;100550.81;5024781;28;20144;-65
2023/02/20 10:28:13;;;;;;;10.07;5.15;;;;;;;8.02;76.76;100533.16;5039454;28;20906;-64
2023/02/20 10:30:48;;;;;;;9.57;5.90;;;;;;;8.06;77.22;100525.06;5034233;28;20056;-64
2023/02/20 10:33:44;;;;;;;11.35;5.50;;;;;;;8.12;77.21;100545.72;5044263;28;20148;-65
2023/02/20 10:36:16;;;;;;;8.25;5.25;;;;;;;8.24;76.54;100540.78;5014818;28;20053;-64
2023/02/20 10:38:48;;;;;;;8.15;5.30;;;;;;;8.23;76.43;100562.69;5030389;28;20108;-64
2023/02/20 10:41:25;;;;;;;7.60;5.10;;;;;;;8.19;76.41;100540.16;5024036;28;20061;-65
2023/02/20 10:44:04;;;;;;;9.90;5.22;;;;;;;8.25;77.26;100535.47;5036614;28;20514;-64
2023/02/20 10:46:41;;;;;;;8.55;5.30;;;;;;;8.27;77.13;100525.75;5024691;28;20140;-65
2023/02/20 10:49:20;;;;;;;9.75;5.80;;;;;;;8.31;76.64;100513.31;5029132;28;20055;-65
2023/02/20 10:51:50;;;;;;;7.40;4.97;;;;;;;8.36;76.17;100542.78;5031453;28;20136;-64
2023/02/20 10:54:23;;;;;;;7.03;5.25;;;;;;;8.35;76.91;100520.13;5024989;28;20541;-68
2023/02/20 10:57:01;;;;;;;9.40;4.88;;;;;;;8.34;77.34;100537.63;5016058;28;20140;-65
2023/02/20 10:59:41;;;;;;;8.52;5.13;;;;;;;8.39;77.25;100510.34;5038335;28;20123;-64
2023/02/20 11:02:18;;;;;;;10.57;4.85;;;;;;;8.43;77.24;100502.25;5043441;28;20125;-64
2023/02/20 11:04:56;;;;;;;7.93;5.20;;;;;;;8.49;77.49;100499.28;5018640;28;20049;-64
2023/02/20 11:07:24;;;;;;;8.80;5.18;;;;;;;8.50;77.37;100495.72;5037394;28;20124;-63
2023/02/20 11:09:51;;;;;;;8.45;5.38;;;;;;;8.56;77.01;100484.94;5042721;28;20045;-65
2023/02/20 11:12:39;;;;;;;8.82;4.45;;;;;;;8.58;77.42;100504.06;5038513;28;20059;-65
2023/02/20 11:15:11;;;;;;;14.13;4.88;;;;;;;8.59;77.40;100507.53;5029734;28;20061;-64
2023/02/20 11:17:40;;;;;;;9.90;4.70;;;;;;;8.65;77.85;100535.25;5023920;28;20107;-65
2023/02/20 11:20:37;;;;;;;9.63;5.22;;;;;;;8.63;78.10;100490.69;5041985;28;20061;-64
2023/02/20 11:23:04;;;;;;;;;;;;;;;8.64;78.57;100492.38;5035534;28;20483;-64
2023/02/20 11:25:33;;;;;;;6.72;4.95;;;;;;;8.73;78.65;100502.38;5039654;28;20053;-64
2023/02/20 11:28:20;;;;;;;7.78;4.57;;;;;;;8.76;78.46;100488.25;5031164;28;20140;-65
2023/02/20 11:30:49;;;;;;;10.45;4.82;;;;;;;8.76;78.57;100489.09;5024874;28;20069;-63
2023/02/20 11:33:19;;;;;;;6.78;3.95;;;;;;;8.88;78.62;100508.63;5034863;28;20144;-63
2023/02/20 11:35:55;;;;;;;10.27;5.28;;;;;;;8.85;79.24;100508.78;5017691;28;20128;-64
2023/02/20 11:38:22;;;;;;;13.48;4.70;;;;;;;8.84;79.91;100505.31;5016332;28;20072;-64
2023/02/20 11:40:52;;;;;;;10.00;5.50;;;;;;;8.85;79.92;100485.16;5041580;28;20140;-64
2023/02/20 11:43:27;;;;;;;8.02;5.20;;;;;;;8.87;80.77;100476.28;5032943;28;20678;-65
2023/02/20 11:46:07;;;;;;;10.17;5.17;;;;;;;8.91;80.37;100499.72;5034445;28;20053;-65
2023/02/20 11:48:35;;;;;;;16.63;4.85;;;;;;;8.94;80.62;100491.69;5029073;28;20498;-64
2023/02/20 11:51:02;;;;;;;10.88;5.32;;;;;;;8.94;80.61;100486.44;5022346;28;20044;-64
2023/02/20 11:53:32;;;;;;;10.48;5.75;;;;;;;8.96;80.50;100463.53;5030086;28;20091;-64
2023/02/20 11:56:18;;;;;;;11.52;5.30;;;;;;;9.01;80.69;100475.50;5038670;28;20144;-65
2023/02/20 11:58:45;;;;;;;;;;;;;;;9.03;80.83;100449.16;5030934;28;20151;-64
2023/02/20 12:01:34;;;;;;;8.95;5.15;;;;;;;9.04;80.84;100475.31;5011134;28;20725;-64